• Join FlightAware (Why Join?)
  • Login
  • US Flag 
03:28AM EST


 

Airport Tracker/Info


-or-


 

Live Flight TrackerFlight Track Log ✈ RPA3253 ✈ 15-Jun-2013 ✈ KCLT - KMSY

Flight Track Log - Related Links

Times and Time Zones

All times are in EDT time to prevent confusion due to time zone crossing. See the RPA3253 flight status page for this flight to view local times or setup timezone preferences in your user account.

Time Position Orientation Groundspeed Altitude Reporting Facility
EDT Latitude Longitude Course Direction KTS MPH feet Rate Location/Type
10:55PM 35.1911 -80.9508 249° West 155 178 1,800  Level Atlanta Center
10:56PM 35.1411 -80.9528 182° South 188 216 3,000 1,513 Climbing Atlanta Center
10:57PM 35.0919 -80.9875 210° Southwest 260 299 4,700 1,929 Climbing Atlanta Center
10:58PM 35.1143 -81.2756 192° South  Level FlightAware Approximate
10:58PM 35.0892 -81.0386 266° West 272 313 5,700  Level Atlanta Center
10:59PM 35.0522 -81.3924 251° West  Level FlightAware Approximate
10:59PM 35.0911 -81.1197 272° West 271 312 8,200  Level Atlanta Center
11:00PM 35.0015 -81.5335 246° West  Level FlightAware Approximate
11:00PM 35.0869 -81.2164 267° West 276 318 10,500  Level Atlanta Center
11:01PM 34.9547 -81.6765 249° West  Level FlightAware Approximate
11:01PM 35.0769 -81.3231 263° West 300 345 12,500  Level Atlanta Center
11:02PM 35.0458 -81.4283 250° West 324 373 14,000 750 Climbing Atlanta Center
11:03PM 35.0147 -81.5331 250° West 334 384 14,000 50 Level Atlanta Center
11:04PM 34.9853 -81.6278 249° West 334 384 14,100 1,050 Climbing Atlanta Center
11:05PM 34.9519 -81.7378 250° West 334 384 16,100 1,900 Climbing Atlanta Center
11:06PM 34.9142 -81.8453 247° West 345 397 17,900 1,900 Climbing Atlanta Center
11:07PM 34.8575 -81.9403 234° Southwest 350 403 19,900 1,900 Climbing Atlanta Center
11:08PM 34.7986 -82.0431 235° Southwest 361 415 21,700 1,750 Climbing Atlanta Center
11:09PM 34.7417 -82.1431 235° Southwest 366 421 23,400 1,500 Climbing Atlanta Center
11:10PM 34.6808 -82.2503 235° Southwest 372 428 24,700 1,350 Climbing Atlanta Center
11:11PM 34.6175 -82.3578 234° Southwest 384 442 26,100 1,300 Climbing Atlanta Center
11:12PM 34.5544 -82.4675 235° Southwest 394 453 27,300 1,100 Climbing Atlanta Center
11:13PM 34.4931 -82.5769 236° Southwest 399 459 28,300 1,200 Climbing Atlanta Center
11:14PM 34.4153 -82.7017 233° Southwest 417 480 29,700 1,150 Climbing Atlanta Center
11:15PM 34.3475 -82.8161 234° Southwest 417 480 30,600 850 Climbing Atlanta Center
11:16PM 34.2839 -82.9350 237° Southwest 422 486 31,400 800 Climbing Atlanta Center
11:17PM 34.2181 -83.0514 236° Southwest 427 491 32,200 850 Climbing Atlanta Center
11:18PM 34.1458 -83.1653 233° Southwest 427 491 33,100 843 Climbing Atlanta Center
11:19PM 34.0778 -83.2864 236° Southwest 433 498 33,900 450 Climbing Atlanta Center
11:20PM 34.0181 -83.3922 236° Southwest 433 498 34,000 50 Climbing Atlanta Center
11:21PM 33.9475 -83.5081 234° Southwest 433 498 34,000  Level Atlanta Center
11:22PM 33.8769 -83.6258 234° Southwest 433 498 34,000  Level Atlanta Center
11:23PM 33.8064 -83.7414 234° Southwest 433 498 34,000  Level Atlanta Center
11:24PM 33.7378 -83.8589 235° Southwest 433 498 34,000  Level Atlanta Center
11:25PM 33.6628 -83.9914 236° Southwest 433 498 34,000  Level Atlanta Center
11:26PM 33.5897 -84.1086 233° Southwest 433 498 34,000  Level Atlanta Center
11:27PM 33.5186 -84.2256 234° Southwest 438 504 34,000  Level Atlanta Center
11:28PM 33.4475 -84.3475 235° Southwest 448 516 34,000  Level Atlanta Center
11:29PM 33.3739 -84.4667 234° Southwest 448 516 34,000  Level Atlanta Center
11:30PM 33.3047 -84.5856 235° Southwest 448 516 34,000  Level Atlanta Center
11:31PM 33.2394 -84.6919 234° Southwest 448 516 34,000  Level Atlanta Center
11:32PM 33.1656 -84.8131 234° Southwest 448 516 34,000  Level Atlanta Center
11:33PM 33.0939 -84.9314 234° Southwest 448 516 34,000  Level Atlanta Center
11:34PM 33.0219 -85.0497 234° Southwest 441 507 34,000  Level Atlanta Center
11:35PM 32.9417 -85.1700 232° Southwest 447 514 34,000  Level Atlanta Center
11:36PM 32.8675 -85.2903 234° Southwest 441 507 34,000  Level Atlanta Center
11:37PM 32.7953 -85.4078 234° Southwest 441 507 34,000  Level Atlanta Center
11:38PM 32.7228 -85.5278 234° Southwest 446 513 34,000  Level Atlanta Center
11:39PM 32.6483 -85.6447 233° Southwest 446 513 34,000  Level Atlanta Center
11:40PM 32.5758 -85.7619 234° Southwest 446 513 34,000  Level Atlanta Center
11:41PM 32.4989 -85.8811 233° Southwest 451 519 34,000  Level Atlanta Center
11:42PM 32.4242 -85.9950 232° Southwest 451 519 34,000  Level Atlanta Center
11:43PM 32.3511 -86.1139 234° Southwest 451 519 34,000  Level Atlanta Center
11:44PM 32.2783 -86.2278 233° Southwest 444 511 34,000  Level Atlanta Center
11:45PM 32.2136 -86.3367 235° Southwest 450 518 34,000  Level Atlanta Center
11:46PM 32.1319 -86.4597 232° Southwest 450 518 34,000  Level Atlanta Center
11:47PM 32.0506 -86.5678 228° Southwest 450 518 34,000  Level Atlanta Center
11:48PM 31.9708 -86.6831 231° Southwest 450 518 34,000  Level Atlanta Center
11:49PM 31.8936 -86.7786 226° Southwest 450 518 34,000  Level Atlanta Center
11:51PM 31.7269 -87.0061 229° Southwest 444 511 34,000  Level Houston Center
11:52PM 31.6461 -87.1161 229° Southwest 444 511 34,000  Level Houston Center
11:53PM 31.5656 -87.2264 229° Southwest 445 512 34,000  Level Houston Center
11:54PM 31.4853 -87.3372 230° Southwest 446 513 34,000  Level Houston Center
11:55PM 31.4033 -87.4478 229° Southwest 449 517 34,000  Level Houston Center
11:56PM 31.3222 -87.5583 229° Southwest 447 514 34,000  Level Houston Center
11:57PM 31.2553 -87.6800 237° Southwest 448 516 34,000  Level Houston Center
11:58PM 31.1928 -87.8119 241° Southwest 446 513 34,000  Level Houston Center
11:59PM 31.1319 -87.9392 241° Southwest 448 516 34,000  Level Houston Center
12:00AM 31.0708 -88.0669 241° Southwest 451 519 34,000  Level Houston Center
12:01AM 31.0089 -88.1925 240° Southwest 450 518 34,000  Level Houston Center
12:02AM 30.9475 -88.3186 240° Southwest 450 518 34,000 -149 Level Houston Center
12:03AM 30.8869 -88.4458 241° Southwest 448 516 33,700 -645 Descending Houston Center
12:04AM 30.8275 -88.5683 241° Southwest 438 504 32,700 -1,300 Descending Houston Center
12:05AM 30.7644 -88.7003 241° Southwest 441 507 31,100 -1,934 Descending Houston Center
12:06AM 30.7053 -88.8214 240° Southwest 435 501 28,800 -2,231 Descending Houston Center
12:07AM 30.6481 -88.9369 240° Southwest 418 481 26,600 -2,083 Descending Houston Center
12:08AM 30.5961 -89.0442 241° Southwest 408 470 24,600 -2,033 Descending Houston Center
12:09AM 30.5428 -89.1536 241° Southwest 394 453 22,500 -2,050 Descending Houston Center
12:10AM 30.4911 -89.2603 241° Southwest 383 441 20,500 -1,983 Descending Houston Center
12:11AM 30.4414 -89.3625 241° Southwest 369 425 18,500 -1,933 Descending Houston Center
12:11AM 30.4142 -89.4214 242° Southwest 355 409 17,600 -2,034 Descending Houston Center
12:12AM 30.3869 -89.4733 239° Southwest 348 400 16,500 -2,176 Descending Houston Center
12:13AM 30.3422 -89.5669 241° Southwest 338 389 14,300 -2,132 Descending Houston Center
12:14AM 30.3039 -89.6700 247° West 343 395 12,200 -1,736 Descending Houston Center
12:15AM 30.2694 -89.7631 247° West 317 365 10,800 -1,475 Descending Houston Center
12:16AM 30.2369 -89.8486 246° West 287 330 9,200 -1,636 Descending Houston Center
12:17AM 30.2058 -89.9286 246° West 289 333 7,500 -1,736 Descending Houston Center
12:18AM 30.1753 -90.0111 247° West 282 325 5,700 -1,686 Descending Houston Center
12:19AM 30.1439 -90.0936 246° West 280 322 4,100 -1,736 Descending Houston Center
12:20AM 30.1097 -90.1811 246° West 272 313 2,200 -1,041 Descending Houston Center
12:21AM 30.0903 -90.2511 252° West 259 298 2,000 -100 Descending Houston Center
12:22AM 30.0817 -90.3183 262° West 221 254 2,000  Level Houston Center
12:23AM 30.0758 -90.3756 263° West 193 222 2,000 -248 Level Houston Center
12:24AM 30.0300 -90.3825 187° South 175 201 1,500 -500 Descending Houston Center
12:25AM 30.0133 -90.3456 118° Southeast 148 170 1,000 -545 Descending Houston Center
12:26AM 30.0033 -90.3078 107° East 133 153 400 -347 Descending Houston Center
12:27AM 29.9942 -90.2678 105° East 132 152 300 -100 Descending Houston Center